createdAt,value
2023-03-19T00:02:26.214Z,100.00
2023-03-19T00:07:27.653Z,100.00
2023-03-19T00:12:29.112Z,100.00
2023-03-19T00:17:30.746Z,100.00
2023-03-19T00:22:32.482Z,100.00
2023-03-19T00:27:33.987Z,100.00
2023-03-19T00:32:36.551Z,100.00
2023-03-19T00:37:38.432Z,100.00
2023-03-19T00:42:39.972Z,100.00
2023-03-19T00:47:42.140Z,100.00
2023-03-19T00:52:43.608Z,100.00
2023-03-19T00:57:45.952Z,100.00
2023-03-19T01:02:47.476Z,100.00
2023-03-19T01:07:50.332Z,100.00
2023-03-19T01:12:52.094Z,100.00
2023-03-19T01:17:53.649Z,100.00
2023-03-19T01:22:55.967Z,100.00
2023-03-19T01:27:57.492Z,100.00
2023-03-19T01:32:59.018Z,100.00
2023-03-19T01:38:30.064Z,100.00
2023-03-19T01:43:37.430Z,100.00
2023-03-19T01:48:48.767Z,100.00
2023-03-19T01:54:00.566Z,100.00
2023-03-19T01:59:31.788Z,100.00
2023-03-19T02:04:57.940Z,100.00
2023-03-19T02:10:01.882Z,100.00
2023-03-19T02:15:05.073Z,100.00
2023-03-19T02:20:36.919Z,100.00
2023-03-19T02:25:47.972Z,100.00
2023-03-19T02:30:51.975Z,100.00
2023-03-19T02:35:55.405Z,100.00
2023-03-19T02:41:05.253Z,100.00
2023-03-19T02:46:13.727Z,100.00
2023-03-19T02:51:15.669Z,100.00
2023-03-19T02:56:17.134Z,100.00
2023-03-19T03:01:18.984Z,100.00
2023-03-19T03:06:21.021Z,100.00
2023-03-19T03:11:22.801Z,100.00
2023-03-19T03:16:25.630Z,100.00
2023-03-19T03:21:27.283Z,100.00
2023-03-19T03:26:28.804Z,100.00
2023-03-19T03:31:30.281Z,100.00
2023-03-19T03:36:32.372Z,100.00
2023-03-19T03:41:33.823Z,100.00
2023-03-19T03:46:36.671Z,100.00
2023-03-19T03:51:38.202Z,100.00
2023-03-19T03:56:39.650Z,100.00
2023-03-19T04:01:41.143Z,100.00
2023-03-19T04:06:42.668Z,100.00
2023-03-19T04:12:11.085Z,100.00
2023-03-19T04:17:12.555Z,100.00
2023-03-19T04:22:14.326Z,99.89
2023-03-19T04:27:16.180Z,99.92
2023-03-19T04:32:17.987Z,100.00
2023-03-19T04:37:19.600Z,99.65
2023-03-19T04:42:24.809Z,100.00
2023-03-19T04:47:39.952Z,99.74
2023-03-19T04:52:42.541Z,100.00
2023-03-19T04:57:46.425Z,100.00
2023-03-19T05:02:48.561Z,100.00
2023-03-19T05:07:50.225Z,100.00
2023-03-19T05:12:52.062Z,100.00
2023-03-19T05:17:54.113Z,100.00
2023-03-19T05:22:57.221Z,100.00
2023-03-19T05:28:09.281Z,100.00
2023-03-19T05:33:11.657Z,100.00
2023-03-19T05:38:16.262Z,100.00
2023-03-19T05:43:22.927Z,100.00
2023-03-19T05:48:26.466Z,100.00
2023-03-19T05:53:28.233Z,100.00
2023-03-19T05:58:48.696Z,100.00
2023-03-19T06:03:55.888Z,100.00
2023-03-19T06:08:57.489Z,100.00
2023-03-19T06:14:05.585Z,100.00
2023-03-19T06:19:12.459Z,100.00
2023-03-19T06:24:14.129Z,100.00
2023-03-19T06:29:15.632Z,100.00
2023-03-19T06:34:20.869Z,100.00
2023-03-19T06:39:22.895Z,100.00
2023-03-19T06:44:25.321Z,100.00
2023-03-19T06:49:27.200Z,100.00
2023-03-19T06:54:28.656Z,100.00
2023-03-19T06:59:30.084Z,100.00
2023-03-19T07:04:31.681Z,100.00
2023-03-19T07:09:33.321Z,100.00
2023-03-19T07:14:34.798Z,100.00
2023-03-19T07:19:36.246Z,100.00
2023-03-19T07:24:37.703Z,100.00
2023-03-19T07:29:39.158Z,100.00
2023-03-19T07:34:40.659Z,100.00
2023-03-19T07:39:42.113Z,100.00
2023-03-19T07:44:43.519Z,100.00
2023-03-19T07:49:45.347Z,100.00
2023-03-19T07:54:46.989Z,100.00
2023-03-19T07:59:48.536Z,100.00
2023-03-19T08:04:50.098Z,100.00
2023-03-19T08:09:51.566Z,100.00
2023-03-19T08:14:53.267Z,100.00
2023-03-19T08:19:54.704Z,100.00
2023-03-19T08:24:56.265Z,100.00
2023-03-19T08:29:58.715Z,100.00
2023-03-19T08:35:00.304Z,100.00
2023-03-19T08:40:01.895Z,100.00
2023-03-19T08:45:03.598Z,100.00
2023-03-19T08:50:06.027Z,100.00
2023-03-19T08:55:09.273Z,100.00
2023-03-19T09:00:12.524Z,100.00
2023-03-19T09:05:14.134Z,100.00
2023-03-19T09:10:15.619Z,98.72
2023-03-19T09:15:17.344Z,98.54
2023-03-19T09:20:19.329Z,99.24
2023-03-19T09:25:20.860Z,98.07
2023-03-19T09:30:22.290Z,98.84
2023-03-19T09:35:24.024Z,95.46
2023-03-19T09:40:35.570Z,92.30
2023-03-19T09:45:37.842Z,91.97
2023-03-19T09:50:39.286Z,92.86
2023-03-19T09:55:47.798Z,88.90
2023-03-19T10:00:51.241Z,88.75
2023-03-19T10:06:01.664Z,90.88
2023-03-19T10:11:20.874Z,89.48
2023-03-19T10:16:26.132Z,89.88
2023-03-19T10:21:36.357Z,90.02
2023-03-19T10:26:38.255Z,88.45
2023-03-19T10:31:46.118Z,88.27
2023-03-19T10:36:47.896Z,85.68
2023-03-19T10:47:14.928Z,75.54
2023-03-19T10:52:24.021Z,76.32
2023-03-19T10:57:27.617Z,78.82
2023-03-19T11:02:32.299Z,79.88
2023-03-19T11:07:35.750Z,83.07
2023-03-19T11:12:37.710Z,83.26
2023-03-19T11:17:58.421Z,85.37
2023-03-19T11:23:04.120Z,85.27
2023-03-19T11:28:20.898Z,83.83
2023-03-19T11:33:42.841Z,82.37
2023-03-19T11:39:09.389Z,81.43
2023-03-19T11:44:23.017Z,82.36
2023-03-19T11:49:39.278Z,82.73
2023-03-19T11:54:54.256Z,80.80
2023-03-19T12:00:36.207Z,80.14
2023-03-19T12:05:59.179Z,78.75
2023-03-19T12:11:24.871Z,78.32
2023-03-19T12:16:39.026Z,78.51
2023-03-19T12:22:13.448Z,80.78
2023-03-19T12:27:27.915Z,83.35
2023-03-19T12:33:09.529Z,81.70
2023-03-19T12:38:31.039Z,80.07
2023-03-19T12:43:42.161Z,81.83
2023-03-19T12:48:55.267Z,79.76
2023-03-19T12:54:03.764Z,78.22
2023-03-19T12:59:11.793Z,78.93
2023-03-19T13:04:20.523Z,78.58
2023-03-19T13:09:41.052Z,77.48
2023-03-19T13:14:50.090Z,74.76
2023-03-19T13:19:54.278Z,73.51
2023-03-19T13:24:57.208Z,72.75
2023-03-19T13:30:03.804Z,73.67
2023-03-19T13:35:33.454Z,72.46
2023-03-19T13:40:43.131Z,72.85
2023-03-19T13:45:44.734Z,72.78
2023-03-19T13:50:54.808Z,75.21
2023-03-19T13:56:01.104Z,72.40
2023-03-19T14:01:02.744Z,72.57
2023-03-19T14:06:04.966Z,72.57
2023-03-19T14:11:10.939Z,74.42
2023-03-19T14:16:26.612Z,72.21
2023-03-19T14:21:40.312Z,71.12
2023-03-19T14:26:44.110Z,70.56
2023-03-19T14:31:54.639Z,68.84
2023-03-19T14:37:02.028Z,69.66
2023-03-19T14:42:13.897Z,71.27
2023-03-19T14:48:07.378Z,69.69
2023-03-19T14:53:18.441Z,69.64
2023-03-19T14:58:20.846Z,70.05
2023-03-19T15:03:29.846Z,68.61
2023-03-19T15:08:33.817Z,69.32
2023-03-19T15:13:57.303Z,68.59
2023-03-19T15:18:59.493Z,68.56
2023-03-19T15:24:00.941Z,68.92
2023-03-19T15:29:04.410Z,68.19
2023-03-19T15:34:23.844Z,70.20
2023-03-19T15:39:29.540Z,68.38
2023-03-19T15:44:41.474Z,70.06
2023-03-19T15:49:52.041Z,66.18
2023-03-19T15:54:55.814Z,67.49
2023-03-19T16:00:00.418Z,67.29
2023-03-19T16:10:43.263Z,68.43
2023-03-19T16:15:47.288Z,69.86
2023-03-19T16:21:01.636Z,70.44
2023-03-19T16:26:15.560Z,71.58
2023-03-19T16:31:22.040Z,72.39
2023-03-19T16:36:27.289Z,71.59
2023-03-19T16:41:34.742Z,72.39
2023-03-19T16:46:36.308Z,73.78
2023-03-19T16:51:38.599Z,74.86
2023-03-19T16:56:40.120Z,75.89
2023-03-19T17:01:41.646Z,77.16
2023-03-19T17:06:43.670Z,77.71
2023-03-19T17:11:45.422Z,78.10
2023-03-19T17:16:50.559Z,76.66
2023-03-19T17:21:56.746Z,77.70
2023-03-19T17:27:01.458Z,78.30
2023-03-19T17:32:05.076Z,77.72
2023-03-19T17:37:10.960Z,79.06
2023-03-19T17:42:18.933Z,79.65
2023-03-19T17:47:20.552Z,79.35
2023-03-19T17:52:23.334Z,79.48
2023-03-19T17:57:26.431Z,80.54
2023-03-19T18:02:31.511Z,80.85
2023-03-19T18:07:32.935Z,81.44
2023-03-19T18:12:34.458Z,81.97
2023-03-19T18:17:36.108Z,82.02
2023-03-19T18:22:38.637Z,82.55
2023-03-19T18:27:40.175Z,82.81
2023-03-19T18:32:45.481Z,83.89
2023-03-19T18:37:49.442Z,84.29
2023-03-19T18:42:50.939Z,82.94
2023-03-19T18:47:52.587Z,85.50
2023-03-19T18:52:54.042Z,87.18
2023-03-19T18:57:59.501Z,90.69
2023-03-19T19:03:02.664Z,91.69
2023-03-19T19:08:04.198Z,94.31
2023-03-19T19:13:13.094Z,94.60
2023-03-19T19:18:23.139Z,97.18
2023-03-19T19:23:30.056Z,98.71
2023-03-19T19:28:39.234Z,100.00
2023-03-19T19:33:42.185Z,100.00
2023-03-19T19:38:43.676Z,100.00
2023-03-19T19:43:47.325Z,100.00
2023-03-19T19:48:48.931Z,100.00
2023-03-19T19:53:50.870Z,100.00
2023-03-19T19:58:54.574Z,100.00
2023-03-19T20:03:56.080Z,100.00
2023-03-19T20:08:57.533Z,100.00
2023-03-19T20:13:59.150Z,100.00
2023-03-19T20:19:01.409Z,100.00
2023-03-19T20:24:02.942Z,100.00
2023-03-19T20:29:04.631Z,100.00
2023-03-19T20:34:06.477Z,100.00
2023-03-19T20:39:07.894Z,100.00
2023-03-19T20:44:19.548Z,100.00
2023-03-19T20:49:21.015Z,100.00
2023-03-19T20:54:22.504Z,100.00
2023-03-19T20:59:26.233Z,100.00
2023-03-19T21:04:27.684Z,98.49
2023-03-19T21:09:29.184Z,98.56
2023-03-19T21:14:30.606Z,98.62
2023-03-19T21:19:32.078Z,98.81
2023-03-19T21:24:33.520Z,99.34
2023-03-19T21:29:35.554Z,97.00
2023-03-19T21:34:36.988Z,97.71
2023-03-19T21:39:38.556Z,95.38
2023-03-19T21:44:40.737Z,94.35
2023-03-19T21:49:42.165Z,93.99
2023-03-19T21:54:43.633Z,93.30
2023-03-19T21:59:45.200Z,92.87
2023-03-19T22:04:46.623Z,92.89
2023-03-19T22:09:48.162Z,93.26
2023-03-19T22:14:49.663Z,92.59
2023-03-19T22:19:51.161Z,91.90
2023-03-19T22:24:53.002Z,92.20
2023-03-19T22:29:54.783Z,91.81
2023-03-19T22:34:56.212Z,91.31
2023-03-19T22:39:57.666Z,89.94
2023-03-19T22:44:59.146Z,90.05
2023-03-19T22:50:00.590Z,89.83
2023-03-19T22:55:02.009Z,89.99
2023-03-19T23:00:11.924Z,89.78
2023-03-19T23:05:27.431Z,89.76
2023-03-19T23:10:32.225Z,91.90
2023-03-19T23:15:34.791Z,91.37
2023-03-19T23:20:36.913Z,90.74
2023-03-19T23:25:38.519Z,91.31
2023-03-19T23:30:41.346Z,91.75
2023-03-19T23:35:43.719Z,91.07
2023-03-19T23:40:46.204Z,94.63
2023-03-19T23:45:49.978Z,92.01
2023-03-19T23:50:51.808Z,92.48
2023-03-19T23:55:57.912Z,91.86
